LFPB/LBG METAR and TAF weather

Enter ICAO airport designator
Station Type Date Time Source
LFPB METAR 2019/05/27 09:00 UTC NOAA

LFPB 270900Z AUTO 28009KT 240V320 9999 FEW026 BKN034 OVC043 17/10 Q1012 NOSIG


Station Type Date Time Source
LFPB Decoded METAR 2019/05/27 09:00 UTC NOAA

Paris / Le Bourget, France (LFPB) 48-58N 002-27E 65M
May 27, 2019 - 05:00 AM EDT / 2019.05.27 0900 UTC
Wind: from the W (280 degrees) at 10 MPH (9 KT) (direction variable):0
Visibility: greater than 7 mile(s):0
Sky conditions: overcast
Temperature: 62 F (17 C)
Dew Point: 50 F (10 C)
Relative Humidity: 63%
Pressure (altimeter): 29.88 in. Hg (1012 hPa)
ob: LFPB 270900Z AUTO 28009KT 240V320 9999 FEW026 BKN034 OVC043 17/10 Q1012 NOSIG
cycle: 9

Station Type Date Time Source
LFPB TAF 2019/05/27 06:21 UTC NOAA

TAF LFPB 270500Z 2706/2806 28010KT 9999 SCT013 PROB30
TEMPO 2706/2707 BKN014 PROB40
TEMPO 2803/2806 4000 SHRA SCT020TCU

Example: see airport list